Time;durP1;ratioP1;P1;durP2;ratioP2;P2;SDS_P1;SDS_P2;PMS_P1;PMS_P2;Temp;Humidity;BMP_temperature;BMP_pressure;BME280_temperature;BME280_humidity;BME280_pressure;Samples;Min_cycle;Max_cycle;Signal;HPM_P1;HPM_P2
2021/07/21 00:00:10;;;;;;;;;;;;;;;;;;2117753;28;854;-71
2021/07/21 00:01:12;;;;;;;;;;;;;;;;;;2117847;28;854;-71
2021/07/21 00:02:15;;;;;;;;;;;;;;;;;;2117818;28;898;-71
2021/07/21 00:03:15;;;;;;;;;;;;;;;;;;2117799;28;783;-70
2021/07/21 00:04:17;;;;;;;;;;;;;;;;;;2117743;28;958;-71
2021/07/21 00:05:18;;;;;;;;;;;;;;;;;;2117745;28;1902;-71
2021/07/21 00:06:20;;;;;;;;;;;;;;;;;;2117912;28;873;-71
2021/07/21 00:07:22;;;;;;;;;;;;;;;;;;2117764;28;872;-71
2021/07/21 00:08:24;;;;;;;;;;;;;;;;;;2117689;28;814;-71
2021/07/21 00:09:25;;;;;;;;;;;;;;;;;;2117901;28;975;-71
2021/07/21 00:10:30;;;;;;;;;;;;;;;;;;2117891;28;810;-71
2021/07/21 00:14:18;;;;;;;;;;;;;;;;;;2117430;28;814;-72
2021/07/21 00:15:20;;;;;;;;;;;;;;;;;;2117582;28;806;-71
2021/07/21 00:16:26;;;;;;;;;;;;;;;;;;2117640;28;924;-71
2021/07/21 00:17:32;;;;;;;;;;;;;;;;;;2117955;28;909;-71
2021/07/21 00:18:36;;;;;;;;;;;;;;;;;;2117721;28;864;-72
2021/07/21 00:20:56;;;;;;;;;;;;;;;;;;2117752;28;906;-72
2021/07/21 00:21:57;;;;;;;;;;;;;;;;;;2117672;28;956;-71
2021/07/21 00:23:00;;;;;;;;;;;;;;;;;;2117759;28;944;-72
2021/07/21 00:24:01;;;;;;;;;;;;;;;;;;2117545;28;857;-71
2021/07/21 00:25:03;;;;;;;;;;;;;;;;;;2117614;28;1972;-71
2021/07/21 00:26:04;;;;;;;;;;;;;;;;;;2117602;28;905;-72
2021/07/21 00:27:06;;;;;;;;;;;;;;;;;;2117669;27;865;-72
2021/07/21 00:28:07;;;;;;;;;;;;;;;;;;2116934;28;1360;-72
2021/07/21 00:29:08;;;;;;;;;;;;;;;;;;2116985;28;869;-72
2021/07/21 00:30:10;;;;;;;;;;;;;;;;;;2117635;28;911;-72
2021/07/21 00:31:15;;;;;;;;;;;;;;;;;;2117697;28;866;-72
2021/07/21 00:32:16;;;;;;;;;;;;;;;;;;2117539;28;857;-72
2021/07/21 00:33:18;;;;;;;;;;;;;;;;;;2116877;28;1210;-71
2021/07/21 00:34:19;;;;;;;;;;;;;;;;;;2108571;28;1379;-71
2021/07/21 00:35:21;;;;;;;;;;;;;;;;;;2116924;28;814;-71
2021/07/21 00:36:23;;;;;;;;;;;;;;;;;;2116865;28;1205;-71
2021/07/21 00:37:25;;;;;;;;;;;;;;;;;;2108676;28;838;-71
2021/07/21 00:38:27;;;;;;;;;;;;;;;;;;2117013;28;898;-72
2021/07/21 00:39:29;;;;;;;;;;;;;;;;;;2116996;28;1419;-71
2021/07/21 00:40:30;;;;;;;;;;;;;;;;;;2108414;28;1461;-71
2021/07/21 00:41:32;;;;;;;;;;;;;;;;;;2116419;28;1698;-71
2021/07/21 00:42:33;;;;;;;;;;;;;;;;;;2116585;28;1618;-72
2021/07/21 00:43:35;;;;;;;;;;;;;;;;;;2107824;28;1244;-71
2021/07/21 00:44:36;;;;;;;;;;;;;;;;;;2116419;28;1210;-70
2021/07/21 00:45:37;;;;;;;;;;;;;;;;;;2116734;28;1984;-69
2021/07/21 00:46:38;;;;;;;;;;;;;;;;;;2116684;28;1250;-69
2021/07/21 00:47:41;;;;;;;;;;;;;;;;;;2107953;28;1521;-70
2021/07/21 00:48:42;;;;;;;;;;;;;;;;;;2116556;28;1329;-71
2021/07/21 00:49:44;;;;;;;;;;;;;;;;;;2116992;28;828;-70
2021/07/21 00:50:45;;;;;;;;;;;;;;;;;;2117677;28;842;-71
2021/07/21 00:51:46;;;;;;;;;;;;;;;;;;2117449;28;867;-71
2021/07/21 00:52:50;;;;;;;;;;;;;;;;;;2116784;28;1486;-68
2021/07/21 00:53:57;;;;;;;;;;;;;;;;;;2108874;28;1576;-70
2021/07/21 00:55:02;;;;;;;;;;;;;;;;;;2116920;28;850;-71
2021/07/21 00:56:04;;;;;;;;;;;;;;;;;;2117292;28;965;-71
2021/07/21 00:57:06;;;;;;;;;;;;;;;;;;2117377;28;843;-71
2021/07/21 00:58:09;;;;;;;;;;;;;;;;;;2116696;28;1378;-71
2021/07/21 00:59:10;;;;;;;;;;;;;;;;;;2108273;28;1369;-70
2021/07/21 01:00:16;;;;;;;;;;;;;;;;;;2108743;28;1355;-69
2021/07/21 01:01:25;;;;;;;;;;;;;;;;;;2117020;28;822;-69
2021/07/21 01:02:28;;;;;;;;;;;;;;;;;;2116646;28;1269;-70
2021/07/21 01:03:29;;;;;;;;;;;;;;;;;;2116901;28;786;-71
2021/07/21 01:04:35;;;;;;;;;;;;;;;;;;2117452;28;825;-71
2021/07/21 01:05:41;;;;;;;;;;;;;;;;;;2117432;28;2023;-71
2021/07/21 01:06:45;;;;;;;;;;;;;;;;;;2117229;28;887;-69
2021/07/21 01:07:47;;;;;;;;;;;;;;;;;;2117343;28;1082;-72
2021/07/21 01:08:50;;;;;;;;;;;;;;;;;;2116635;28;1273;-71
2021/07/21 01:09:55;;;;;;;;;;;;;;;;;;2116611;28;1378;-71
2021/07/21 01:11:02;;;;;;;;;;;;;;;;;;2116776;28;873;-72
2021/07/21 01:12:06;;;;;;;;;;;;;;;;;;2117658;28;759;-71
2021/07/21 01:13:18;;;;;;;;;;;;;;;;;;2116611;28;1347;-70
2021/07/21 01:14:22;;;;;;;;;;;;;;;;;;2108825;28;1348;-70
2021/07/21 01:15:27;;;;;;;;;;;;;;;;;;2116560;28;1322;-69
2021/07/21 01:16:31;;;;;;;;;;;;;;;;;;2108882;28;1605;-71
2021/07/21 01:17:36;;;;;;;;;;;;;;;;;;2116635;28;869;-70
2021/07/21 01:18:41;;;;;;;;;;;;;;;;;;2116581;28;1398;-71
2021/07/21 01:19:58;;;;;;;;;;;;;;;;;;2108000;28;1206;-70
2021/07/21 01:21:12;;;;;;;;;;;;;;;;;;2110010;28;1218;-71
2021/07/21 01:22:16;;;;;;;;;;;;;;;;;;2109421;28;1365;-71
2021/07/21 01:23:32;;;;;;;;;;;;;;;;;;2116094;28;1175;-71
2021/07/21 01:24:40;;;;;;;;;;;;;;;;;;2116971;28;802;-70
2021/07/21 01:25:57;;;;;;;;;;;;;;;;;;2116372;28;1968;-71
2021/07/21 01:27:18;;;;;;;;;;;;;;;;;;2110933;28;838;-70
2021/07/21 01:28:23;;;;;;;;;;;;;;;;;;2108002;28;1135;-70
2021/07/21 01:29:28;;;;;;;;;;;;;;;;;;2108586;28;1178;-70
2021/07/21 01:30:32;;;;;;;;;;;;;;;;;;2108383;28;1191;-70
2021/07/21 01:31:34;;;;;;;;;;;;;;;;;;2116547;28;872;-70
2021/07/21 01:32:38;;;;;;;;;;;;;;;;;;2117114;28;918;-70
2021/07/21 01:33:42;;;;;;;;;;;;;;;;;;2116418;28;1329;-71
2021/07/21 01:34:44;;;;;;;;;;;;;;;;;;2116501;28;870;-70
2021/07/21 01:35:52;;;;;;;;;;;;;;;;;;2116424;28;1396;-71
2021/07/21 01:36:56;;;;;;;;;;;;;;;;;;2108760;28;1298;-71
2021/07/21 01:37:59;;;;;;;;;;;;;;;;;;2116506;28;1173;-71
2021/07/21 01:39:04;;;;;;;;;;;;;;;;;;2108131;28;1319;-71
2021/07/21 01:40:13;;;;;;;;;;;;;;;;;;2108773;28;1304;-69
2021/07/21 01:41:16;;;;;;;;;;;;;;;;;;2108535;28;1234;-71
2021/07/21 01:42:20;;;;;;;;;;;;;;;;;;2108504;28;1504;-71
2021/07/21 01:43:26;;;;;;;;;;;;;;;;;;2116322;28;1318;-71
2021/07/21 01:44:28;;;;;;;;;;;;;;;;;;2116381;28;1201;-72
2021/07/21 01:45:31;;;;;;;;;;;;;;;;;;2107987;28;1917;-71
2021/07/21 01:46:32;;;;;;;;;;;;;;;;;;2116627;28;870;-70
2021/07/21 01:47:34;;;;;;;;;;;;;;;;;;2116223;28;1206;-71
2021/07/21 01:48:37;;;;;;;;;;;;;;;;;;2116325;28;819;-71
2021/07/21 01:49:39;;;;;;;;;;;;;;;;;;2117084;28;921;-71
2021/07/21 01:50:42;;;;;;;;;;;;;;;;;;2116270;28;1372;-71
2021/07/21 01:51:45;;;;;;;;;;;;;;;;;;2107843;28;1418;-71
2021/07/21 01:52:49;;;;;;;;;;;;;;;;;;2107645;28;1298;-71
2021/07/21 01:53:52;;;;;;;;;;;;;;;;;;2116457;28;826;-71
2021/07/21 01:54:55;;;;;;;;;;;;;;;;;;2116271;28;1300;-70
2021/07/21 01:55:56;;;;;;;;;;;;;;;;;;2108001;28;1485;-71
2021/07/21 01:56:58;;;;;;;;;;;;;;;;;;2116275;28;889;-71
2021/07/21 01:58:00;;;;;;;;;;;;;;;;;;2117208;28;920;-71
2021/07/21 01:59:23;;;;;;;;;;;;;;;;;;2116835;28;605;-72
2021/07/21 02:00:48;;;;;;;;;;;;;;;;;;2112010;28;1818;-71
2021/07/21 02:01:50;;;;;;;;;;;;;;;;;;2101950;28;1201;-71
2021/07/21 02:03:03;;;;;;;;;;;;;;;;;;2101130;28;1540;-71
2021/07/21 02:04:18;;;;;;;;;;;;;;;;;;2108134;28;479;-71
2021/07/21 02:05:19;;;;;;;;;;;;;;;;;;2108397;28;937;-71
2021/07/21 02:06:22;;;;;;;;;;;;;;;;;;2107628;28;1913;-71
2021/07/21 02:07:24;;;;;;;;;;;;;;;;;;2114533;28;1612;-69
2021/07/21 02:08:29;;;;;;;;;;;;;;;;;;2114730;28;1220;-71
2021/07/21 02:10:05;;;;;;;;;;;;;;;;;;2106293;28;1160;-71
2021/07/21 02:11:28;;;;;;;;;;;;;;;;;;2115748;28;1506;-70
2021/07/21 02:12:32;;;;;;;;;;;;;;;;;;2107639;28;871;-71
2021/07/21 02:13:35;;;;;;;;;;;;;;;;;;2107865;28;814;-70
2021/07/21 02:14:58;;;;;;;;;;;;;;;;;;2110210;28;1582;-71
2021/07/21 02:16:02;;;;;;;;;;;;;;;;;;2107611;28;1486;-71
2021/07/21 02:17:04;;;;;;;;;;;;;;;;;;2116025;28;1438;-72
2021/07/21 02:18:15;;;;;;;;;;;;;;;;;;2108614;28;1608;-71
2021/07/21 02:19:16;;;;;;;;;;;;;;;;;;2108130;28;1298;-71
2021/07/21 02:20:27;;;;;;;;;;;;;;;;;;2116083;28;917;-71
2021/07/21 02:21:31;;;;;;;;;;;;;;;;;;2116497;28;881;-71
2021/07/21 02:22:33;;;;;;;;;;;;;;;;;;2116873;28;885;-71
2021/07/21 02:23:53;;;;;;;;;;;;;;;;;;2116812;28;593;-71
2021/07/21 02:25:15;;;;;;;;;;;;;;;;;;2117029;28;581;-71
2021/07/21 02:26:19;;;;;;;;;;;;;;;;;;2116452;28;1913;-71
2021/07/21 02:27:22;;;;;;;;;;;;;;;;;;2115616;28;1498;-71
2021/07/21 02:28:24;;;;;;;;;;;;;;;;;;2107623;28;1935;-70
2021/07/21 02:29:30;;;;;;;;;;;;;;;;;;2108070;28;1251;-70
2021/07/21 02:30:35;;;;;;;;;;;;;;;;;;2115760;28;807;-70
2021/07/21 02:31:39;;;;;;;;;;;;;;;;;;2115958;28;905;-71
2021/07/21 02:32:49;;;;;;;;;;;;;;;;;;2107966;28;1182;-70
2021/07/21 02:33:53;;;;;;;;;;;;;;;;;;2116322;28;842;-71
2021/07/21 02:34:57;;;;;;;;;;;;;;;;;;2116839;28;830;-70
2021/07/21 02:35:59;;;;;;;;;;;;;;;;;;2115893;28;1181;-71
2021/07/21 02:37:02;;;;;;;;;;;;;;;;;;2107599;28;1250;-71
2021/07/21 02:38:05;;;;;;;;;;;;;;;;;;2115966;28;1262;-71
2021/07/21 02:39:14;;;;;;;;;;;;;;;;;;2115932;28;1576;-72
2021/07/21 02:40:16;;;;;;;;;;;;;;;;;;2107574;28;1506;-72
2021/07/21 02:41:20;;;;;;;;;;;;;;;;;;2116031;28;1229;-71
2021/07/21 02:42:23;;;;;;;;;;;;;;;;;;2107512;28;1226;-70
2021/07/21 02:43:24;;;;;;;;;;;;;;;;;;2115778;28;1243;-71
2021/07/21 02:44:27;;;;;;;;;;;;;;;;;;2116622;28;848;-71
2021/07/21 02:45:27;;;;;;;;;;;;;;;;;;2116746;28;845;-71
2021/07/21 02:46:31;;;;;;;;;;;;;;;;;;2116698;28;1913;-71
2021/07/21 02:47:32;;;;;;;;;;;;;;;;;;2115852;28;1517;-71
2021/07/21 02:48:38;;;;;;;;;;;;;;;;;;2108053;28;1389;-71
2021/07/21 02:49:39;;;;;;;;;;;;;;;;;;2107660;28;1639;-71
2021/07/21 02:50:48;;;;;;;;;;;;;;;;;;2116024;28;850;-71
2021/07/21 02:51:51;;;;;;;;;;;;;;;;;;2115936;28;1198;-69
2021/07/21 02:53:13;;;;;;;;;;;;;;;;;;2116382;28;862;-71
2021/07/21 02:54:37;;;;;;;;;;;;;;;;;;2105150;28;1230;-71
2021/07/21 02:55:41;;;;;;;;;;;;;;;;;;2116816;28;941;-71
2021/07/21 02:56:47;;;;;;;;;;;;;;;;;;2116258;28;1346;-70
2021/07/21 02:57:51;;;;;;;;;;;;;;;;;;2108195;28;1210;-70
2021/07/21 02:58:57;;;;;;;;;;;;;;;;;;2107887;28;1097;-70
2021/07/21 03:00:03;;;;;;;;;;;;;;;;;;2116052;28;902;-70
2021/07/21 03:01:05;;;;;;;;;;;;;;;;;;2116234;28;1620;-71
2021/07/21 03:02:11;;;;;;;;;;;;;;;;;;2108012;28;1380;-71
2021/07/21 03:03:17;;;;;;;;;;;;;;;;;;2115900;28;901;-71
2021/07/21 03:04:20;;;;;;;;;;;;;;;;;;2116586;28;916;-71
2021/07/21 03:05:24;;;;;;;;;;;;;;;;;;2116936;28;815;-69
2021/07/21 03:06:36;;;;;;;;;;;;;;;;;;2117884;28;1913;-71
2021/07/21 03:07:45;;;;;;;;;;;;;;;;;;2117638;28;1379;-71
2021/07/21 03:08:50;;;;;;;;;;;;;;;;;;2117904;28;885;-71
2021/07/21 03:09:58;;;;;;;;;;;;;;;;;;2118294;28;830;-71
2021/07/21 03:11:00;;;;;;;;;;;;;;;;;;2118218;28;950;-71
2021/07/21 03:12:05;;;;;;;;;;;;;;;;;;2117543;28;901;-71
2021/07/21 03:13:23;;;;;;;;;;;;;;;;;;2117778;28;1026;-71
2021/07/21 03:14:28;;;;;;;;;;;;;;;;;;2118367;28;790;-71
2021/07/21 03:15:35;;;;;;;;;;;;;;;;;;2117517;28;1265;-71
2021/07/21 03:16:44;;;;;;;;;;;;;;;;;;2118107;28;1117;-71
2021/07/21 03:17:50;;;;;;;;;;;;;;;;;;2117493;28;1207;-71
2021/07/21 03:18:53;;;;;;;;;;;;;;;;;;2109569;28;1367;-71
2021/07/21 03:19:59;;;;;;;;;;;;;;;;;;2109764;28;1227;-72
2021/07/21 03:21:00;;;;;;;;;;;;;;;;;;2117490;28;1446;-71
2021/07/21 03:22:07;;;;;;;;;;;;;;;;;;2109544;28;1270;-72
2021/07/21 03:23:20;;;;;;;;;;;;;;;;;;2117635;28;1054;-72
2021/07/21 03:24:33;;;;;;;;;;;;;;;;;;2117596;28;1628;-71
2021/07/21 03:26:05;;;;;;;;;;;;;;;;;;2106784;28;1906;-71
2021/07/21 03:27:13;;;;;;;;;;;;;;;;;;2117371;28;1376;-72
2021/07/21 03:28:33;;;;;;;;;;;;;;;;;;2117679;28;661;-71
2021/07/21 03:29:38;;;;;;;;;;;;;;;;;;2118278;28;862;-71
2021/07/21 03:30:40;;;;;;;;;;;;;;;;;;2118071;28;929;-71
2021/07/21 03:31:46;;;;;;;;;;;;;;;;;;2118405;28;841;-70
2021/07/21 03:32:51;;;;;;;;;;;;;;;;;;2118100;28;826;-70
2021/07/21 03:33:58;;;;;;;;;;;;;;;;;;2117208;28;1335;-71
2021/07/21 03:35:00;;;;;;;;;;;;;;;;;;2117579;28;874;-70
2021/07/21 03:36:05;;;;;;;;;;;;;;;;;;2118031;28;857;-71
2021/07/21 03:37:26;;;;;;;;;;;;;;;;;;2117851;28;1789;-70
2021/07/21 03:38:36;;;;;;;;;;;;;;;;;;2117361;28;1225;-71
2021/07/21 03:39:52;;;;;;;;;;;;;;;;;;2110507;28;1199;-70
2021/07/21 03:41:20;;;;;;;;;;;;;;;;;;2097871;28;1239;-71
2021/07/21 03:42:23;;;;;;;;;;;;;;;;;;2118279;28;881;-71
2021/07/21 03:43:26;;;;;;;;;;;;;;;;;;2116953;28;1533;-70
2021/07/21 03:44:36;;;;;;;;;;;;;;;;;;2110035;28;1333;-71
2021/07/21 03:45:39;;;;;;;;;;;;;;;;;;2117291;28;1319;-71
2021/07/21 03:46:42;;;;;;;;;;;;;;;;;;2117543;28;1910;-71
2021/07/21 03:47:44;;;;;;;;;;;;;;;;;;2117230;28;1241;-71
2021/07/21 03:48:46;;;;;;;;;;;;;;;;;;2108946;28;1333;-69
2021/07/21 03:50:09;;;;;;;;;;;;;;;;;;2117407;28;1189;-71
2021/07/21 03:51:13;;;;;;;;;;;;;;;;;;2117195;28;882;-71
2021/07/21 03:52:42;;;;;;;;;;;;;;;;;;2100516;28;1332;-71
2021/07/21 03:53:43;;;;;;;;;;;;;;;;;;2117299;28;1138;-71
2021/07/21 03:54:47;;;;;;;;;;;;;;;;;;2117217;28;1401;-71
2021/07/21 03:56:08;;;;;;;;;;;;;;;;;;2111354;28;1216;-71
2021/07/21 03:57:19;;;;;;;;;;;;;;;;;;2117250;28;877;-71
2021/07/21 03:58:22;;;;;;;;;;;;;;;;;;2117556;28;916;-69
2021/07/21 03:59:32;;;;;;;;;;;;;;;;;;2117130;28;1372;-70
2021/07/21 04:00:37;;;;;;;;;;;;;;;;;;2107025;28;1854;-71
2021/07/21 04:01:40;;;;;;;;;;;;;;;;;;2117812;27;1378;-71
2021/07/21 04:02:45;;;;;;;;;;;;;;;;;;2117163;28;1347;-71
2021/07/21 04:03:48;;;;;;;;;;;;;;;;;;2108974;28;1312;-71
2021/07/21 04:04:51;;;;;;;;;;;;;;;;;;2117269;28;904;-71
2021/07/21 04:05:56;;;;;;;;;;;;;;;;;;2117875;28;817;-70
2021/07/21 04:07:02;;;;;;;;;;;;;;;;;;2116929;28;1987;-71
2021/07/21 04:08:09;;;;;;;;;;;;;;;;;;2109855;28;1256;-71
2021/07/21 04:09:12;;;;;;;;;;;;;;;;;;2108673;28;1416;-71
2021/07/21 04:10:14;;;;;;;;;;;;;;;;;;2108835;28;1589;-70
2021/07/21 04:11:25;;;;;;;;;;;;;;;;;;2117443;28;885;-71
2021/07/21 04:12:27;;;;;;;;;;;;;;;;;;2117187;28;1400;-71
2021/07/21 04:13:35;;;;;;;;;;;;;;;;;;2109570;28;1304;-72
2021/07/21 04:14:52;;;;;;;;;;;;;;;;;;2117475;28;837;-70
2021/07/21 04:16:02;;;;;;;;;;;;;;;;;;2117413;28;838;-71
2021/07/21 04:17:08;;;;;;;;;;;;;;;;;;2117976;28;826;-71
2021/07/21 04:18:13;;;;;;;;;;;;;;;;;;2116981;28;1268;-71
2021/07/21 04:19:16;;;;;;;;;;;;;;;;;;2117220;28;906;-71
2021/07/21 04:20:19;;;;;;;;;;;;;;;;;;2116997;28;1191;-71
2021/07/21 04:21:21;;;;;;;;;;;;;;;;;;2108931;28;1222;-71
2021/07/21 04:22:25;;;;;;;;;;;;;;;;;;2116975;28;1452;-71
2021/07/21 04:23:28;;;;;;;;;;;;;;;;;;2116896;28;1314;-71
2021/07/21 04:24:30;;;;;;;;;;;;;;;;;;2108717;28;1212;-71
2021/07/21 04:25:32;;;;;;;;;;;;;;;;;;2117007;28;869;-71
2021/07/21 04:26:39;;;;;;;;;;;;;;;;;;2117041;28;1968;-72
2021/07/21 04:27:44;;;;;;;;;;;;;;;;;;2109004;28;1266;-72
2021/07/21 04:28:52;;;;;;;;;;;;;;;;;;2109410;28;1380;-71
2021/07/21 04:29:53;;;;;;;;;;;;;;;;;;2108775;28;1371;-71
2021/07/21 04:30:55;;;;;;;;;;;;;;;;;;2116944;28;1426;-71
2021/07/21 04:31:56;;;;;;;;;;;;;;;;;;2116937;28;1172;-71
2021/07/21 04:33:01;;;;;;;;;;;;;;;;;;2117087;28;873;-71
2021/07/21 04:34:06;;;;;;;;;;;;;;;;;;2117632;28;838;-71
2021/07/21 04:35:11;;;;;;;;;;;;;;;;;;2117572;28;984;-71
2021/07/21 04:36:16;;;;;;;;;;;;;;;;;;2117209;28;1396;-70
2021/07/21 04:37:25;;;;;;;;;;;;;;;;;;2109721;28;1262;-70
2021/07/21 04:38:35;;;;;;;;;;;;;;;;;;2109542;28;1251;-70
2021/07/21 04:39:43;;;;;;;;;;;;;;;;;;2116662;28;712;-71
2021/07/21 04:41:02;;;;;;;;;;;;;;;;;;2117206;28;672;-69
2021/07/21 04:42:19;;;;;;;;;;;;;;;;;;2117140;28;629;-71
2021/07/21 04:43:20;;;;;;;;;;;;;;;;;;2116971;28;1255;-69
2021/07/21 04:44:22;;;;;;;;;;;;;;;;;;2116547;28;1250;-69
2021/07/21 04:45:28;;;;;;;;;;;;;;;;;;2117026;28;885;-71
2021/07/21 04:46:31;;;;;;;;;;;;;;;;;;2117623;28;1975;-70
2021/07/21 04:47:36;;;;;;;;;;;;;;;;;;2116787;28;1182;-68
2021/07/21 04:48:41;;;;;;;;;;;;;;;;;;2116907;28;952;-70
2021/07/21 04:49:51;;;;;;;;;;;;;;;;;;2116850;28;1208;-70
2021/07/21 04:50:55;;;;;;;;;;;;;;;;;;2116905;28;881;-70
2021/07/21 04:51:58;;;;;;;;;;;;;;;;;;2117740;28;944;-70
2021/07/21 04:53:03;;;;;;;;;;;;;;;;;;2117618;28;901;-70
2021/07/21 04:54:05;;;;;;;;;;;;;;;;;;2116728;28;1453;-70
2021/07/21 04:55:12;;;;;;;;;;;;;;;;;;2108889;28;1361;-70
2021/07/21 04:56:15;;;;;;;;;;;;;;;;;;2116569;28;1412;-70
2021/07/21 04:57:18;;;;;;;;;;;;;;;;;;2116726;28;1381;-70
2021/07/21 04:58:40;;;;;;;;;;;;;;;;;;2110853;28;1341;-69
2021/07/21 04:59:46;;;;;;;;;;;;;;;;;;2116457;28;1444;-70
2021/07/21 05:00:51;;;;;;;;;;;;;;;;;;2117237;28;1459;-70
2021/07/21 05:01:54;;;;;;;;;;;;;;;;;;2117281;28;1495;-70
2021/07/21 05:02:57;;;;;;;;;;;;;;;;;;2117301;27;1428;-70
2021/07/21 05:03:58;;;;;;;;;;;;;;;;;;2117187;28;1431;-70
2021/07/21 05:05:26;;;;;;;;;;;;;;;;;;2116296;28;1329;-70
2021/07/21 05:06:36;;;;;;;;;;;;;;;;;;2107048;28;1965;-69
2021/07/21 05:07:38;;;;;;;;;;;;;;;;;;2116510;28;1412;-70
2021/07/21 05:08:49;;;;;;;;;;;;;;;;;;2116390;28;1501;-69
2021/07/21 05:09:55;;;;;;;;;;;;;;;;;;2116609;28;1544;-70
2021/07/21 05:10:58;;;;;;;;;;;;;;;;;;2116315;28;1502;-70
2021/07/21 05:12:00;;;;;;;;;;;;;;;;;;2113739;28;1480;-69
2021/07/21 05:13:02;;;;;;;;;;;;;;;;;;2116270;28;1518;-70
2021/07/21 05:14:08;;;;;;;;;;;;;;;;;;2116489;28;1553;-70
2021/07/21 05:15:24;;;;;;;;;;;;;;;;;;2115155;28;1323;-70
2021/07/21 05:16:36;;;;;;;;;;;;;;;;;;2116319;28;1506;-69
2021/07/21 05:17:36;;;;;;;;;;;;;;;;;;2116341;28;1565;-70
2021/07/21 05:18:46;;;;;;;;;;;;;;;;;;2114746;28;1292;-70
2021/07/21 05:19:53;;;;;;;;;;;;;;;;;;2116937;28;1505;-70
2021/07/21 05:20:55;;;;;;;;;;;;;;;;;;2116236;28;1611;-70
2021/07/21 05:21:58;;;;;;;;;;;;;;;;;;2116239;28;1517;-69
2021/07/21 05:23:00;;;;;;;;;;;;;;;;;;2113688;28;1435;-70
2021/07/21 05:24:12;;;;;;;;;;;;;;;;;;2116286;28;1510;-70
2021/07/21 05:25:14;;;;;;;;;;;;;;;;;;2107756;28;1561;-70
2021/07/21 05:26:31;;;;;;;;;;;;;;;;;;2113491;28;1382;-70
2021/07/21 05:27:42;;;;;;;;;;;;;;;;;;2108239;28;1404;-71
2021/07/21 05:28:43;;;;;;;;;;;;;;;;;;2107875;28;1499;-70
2021/07/21 05:29:53;;;;;;;;;;;;;;;;;;2108888;28;1603;-69
2021/07/21 05:31:17;;;;;;;;;;;;;;;;;;2107907;28;1391;-68
2021/07/21 05:32:37;;;;;;;;;;;;;;;;;;2116654;28;1451;-70
2021/07/21 05:33:40;;;;;;;;;;;;;;;;;;2113756;28;1459;-69
2021/07/21 05:34:42;;;;;;;;;;;;;;;;;;2107730;28;1440;-70
2021/07/21 05:35:53;;;;;;;;;;;;;;;;;;2109244;28;1510;-70
2021/07/21 05:37:00;;;;;;;;;;;;;;;;;;2116112;28;1538;-71
2021/07/21 05:38:12;;;;;;;;;;;;;;;;;;2108269;28;1546;-70
2021/07/21 05:39:16;;;;;;;;;;;;;;;;;;2107776;28;1518;-68
2021/07/21 05:40:17;;;;;;;;;;;;;;;;;;2116084;28;1510;-70
2021/07/21 05:41:36;;;;;;;;;;;;;;;;;;2116042;28;1442;-69
2021/07/21 05:42:37;;;;;;;;;;;;;;;;;;2116123;28;1502;-68
2021/07/21 05:43:39;;;;;;;;;;;;;;;;;;2107373;28;1510;-70
2021/07/21 05:44:42;;;;;;;;;;;;;;;;;;2102975;28;1769;-69
2021/07/21 05:45:44;;;;;;;;;;;;;;;;;;2107704;28;1518;-69
2021/07/21 05:46:44;;;;;;;;;;;;;;;;;;2116058;28;1472;-71
2021/07/21 05:47:47;;;;;;;;;;;;;;;;;;2113302;28;1513;-71
2021/07/21 05:48:48;;;;;;;;;;;;;;;;;;2107697;28;1482;-70
2021/07/21 05:50:10;;;;;;;;;;;;;;;;;;2115210;28;1289;-68
2021/07/21 05:51:27;;;;;;;;;;;;;;;;;;2115184;28;1710;-70
2021/07/21 05:52:39;;;;;;;;;;;;;;;;;;2106838;28;1227;-70
2021/07/21 05:53:45;;;;;;;;;;;;;;;;;;2115672;28;1515;-70
2021/07/21 05:54:48;;;;;;;;;;;;;;;;;;2115654;28;1729;-70
2021/07/21 05:55:53;;;;;;;;;;;;;;;;;;2107603;28;1406;-70
2021/07/21 05:56:56;;;;;;;;;;;;;;;;;;2115740;28;1435;-70
2021/07/21 05:58:10;;;;;;;;;;;;;;;;;;2113634;28;1281;-70
2021/07/21 05:59:13;;;;;;;;;;;;;;;;;;2115700;28;2523;-71
2021/07/21 06:00:16;;;;;;;;;;;;;;;;;;2106182;28;1398;-69
2021/07/21 06:01:16;;;;;;;;;;;;;;;;;;2114223;28;1361;-69
2021/07/21 06:02:19;;;;;;;;;;;;;;;;;;2115580;28;1415;-70
2021/07/21 06:03:22;;;;;;;;;;;;;;;;;;2107285;28;1413;-70
2021/07/21 06:04:41;;;;;;;;;;;;;;;;;;2115897;28;1158;-71
2021/07/21 06:06:08;;;;;;;;;;;;;;;;;;2086842;28;1215;-70
2021/07/21 06:07:28;;;;;;;;;;;;;;;;;;2112713;28;1922;-71
2021/07/21 06:08:50;;;;;;;;;;;;;;;;;;2112713;28;1199;-71
2021/07/21 06:09:55;;;;;;;;;;;;;;;;;;2116230;28;1352;-73
2021/07/21 06:11:00;;;;;;;;;;;;;;;;;;2115547;28;1535;-74
2021/07/21 06:12:02;;;;;;;;;;;;;;;;;;2107108;28;1361;-73
2021/07/21 06:13:03;;;;;;;;;;;;;;;;;;2107307;28;1412;-75
2021/07/21 06:14:06;;;;;;;;;;;;;;;;;;2107153;28;1396;-73
2021/07/21 06:15:11;;;;;;;;;;;;;;;;;;2105420;28;1262;-73
2021/07/21 06:16:15;;;;;;;;;;;;;;;;;;2107101;28;1443;-73
2021/07/21 06:17:16;;;;;;;;;;;;;;;;;;2115559;28;1416;-72
2021/07/21 06:18:36;;;;;;;;;;;;;;;;;;2108530;28;917;-73
2021/07/21 06:19:37;;;;;;;;;;;;;;;;;;2116027;28;1411;-72
2021/07/21 06:20:39;;;;;;;;;;;;;;;;;;2115971;28;1510;-72
2021/07/21 06:21:41;;;;;;;;;;;;;;;;;;2115832;28;1374;-72
2021/07/21 06:23:15;;;;;;;;;;;;;;;;;;2101168;28;1364;-72
2021/07/21 06:24:23;;;;;;;;;;;;;;;;;;2115783;28;1410;-73
2021/07/21 06:25:27;;;;;;;;;;;;;;;;;;2115548;28;1037;-72
2021/07/21 06:26:54;;;;;;;;;;;;;;;;;;2102540;28;1277;-72
2021/07/21 06:28:08;;;;;;;;;;;;;;;;;;2115906;28;1387;-72
2021/07/21 06:29:12;;;;;;;;;;;;;;;;;;2115326;28;1300;-72
2021/07/21 06:30:19;;;;;;;;;;;;;;;;;;2115904;28;1377;-72
2021/07/21 06:31:21;;;;;;;;;;;;;;;;;;2115723;28;1242;-72
2021/07/21 06:32:26;;;;;;;;;;;;;;;;;;2116022;28;1384;-72
2021/07/21 06:33:32;;;;;;;;;;;;;;;;;;2115324;28;1205;-72
2021/07/21 06:34:34;;;;;;;;;;;;;;;;;;2107441;28;1374;-72
2021/07/21 06:35:46;;;;;;;;;;;;;;;;;;2100411;28;1035;-72
2021/07/21 06:36:47;;;;;;;;;;;;;;;;;;2107666;28;853;-72
2021/07/21 06:37:49;;;;;;;;;;;;;;;;;;2115982;28;1238;-72
2021/07/21 06:38:51;;;;;;;;;;;;;;;;;;2115778;28;1574;-73
2021/07/21 06:40:09;;;;;;;;;;;;;;;;;;2107928;28;878;-72
2021/07/21 06:41:09;;;;;;;;;;;;;;;;;;2108185;28;957;-72
2021/07/21 06:42:16;;;;;;;;;;;;;;;;;;2115981;28;1202;-71
2021/07/21 06:43:24;;;;;;;;;;;;;;;;;;2114918;28;1115;-72
2021/07/21 06:44:37;;;;;;;;;;;;;;;;;;2108273;28;865;-72
2021/07/21 06:45:53;;;;;;;;;;;;;;;;;;2108324;28;854;-70
2021/07/21 06:46:55;;;;;;;;;;;;;;;;;;2115944;28;1337;-72
2021/07/21 06:48:00;;;;;;;;;;;;;;;;;;2115149;28;1967;-72
2021/07/21 06:49:09;;;;;;;;;;;;;;;;;;2107632;28;857;-71
2021/07/21 06:50:10;;;;;;;;;;;;;;;;;;2108175;28;886;-71
2021/07/21 06:51:12;;;;;;;;;;;;;;;;;;2115920;28;1445;-72
2021/07/21 06:52:13;;;;;;;;;;;;;;;;;;2115893;28;1523;-71
2021/07/21 06:53:15;;;;;;;;;;;;;;;;;;2115894;28;1213;-71
2021/07/21 06:54:34;;;;;;;;;;;;;;;;;;2113568;28;652;-71
2021/07/21 06:55:56;;;;;;;;;;;;;;;;;;2108345;28;668;-72
2021/07/21 06:56:57;;;;;;;;;;;;;;;;;;2108222;28;896;-71
2021/07/21 06:58:17;;;;;;;;;;;;;;;;;;2108228;28;605;-72
2021/07/21 06:59:21;;;;;;;;;;;;;;;;;;2108143;28;864;-71
2021/07/21 07:00:23;;;;;;;;;;;;;;;;;;2108131;28;894;-72
2021/07/21 07:01:38;;;;;;;;;;;;;;;;;;2108277;28;815;-72
2021/07/21 07:03:19;;;;;;;;;;;;;;;;;;2090732;28;1326;-72
2021/07/21 07:04:56;;;;;;;;;;;;;;;;;;2082352;28;1323;-72
2021/07/21 07:06:25;;;;;;;;;;;;;;;;;;2074251;28;1557;-72
2021/07/21 07:07:46;;;;;;;;;;;;;;;;;;2071500;28;1910;-72
2021/07/21 07:09:05;;;;;;;;;;;;;;;;;;2100985;28;1121;-72
2021/07/21 07:10:25;;;;;;;;;;;;;;;;;;2108156;28;688;-71
2021/07/21 07:11:28;;;;;;;;;;;;;;;;;;2108354;28;870;-72
2021/07/21 07:12:29;;;;;;;;;;;;;;;;;;2108207;28;925;-73
2021/07/21 07:13:30;;;;;;;;;;;;;;;;;;2108100;28;858;-72
2021/07/21 07:14:32;;;;;;;;;;;;;;;;;;2108062;28;799;-72
2021/07/21 07:15:32;;;;;;;;;;;;;;;;;;2108089;28;841;-72
2021/07/21 07:16:35;;;;;;;;;;;;;;;;;;2108073;28;822;-72
2021/07/21 07:17:36;;;;;;;;;;;;;;;;;;2115943;28;1188;-73
2021/07/21 07:18:38;;;;;;;;;;;;;;;;;;2116153;28;881;-73
2021/07/21 07:19:38;;;;;;;;;;;;;;;;;;2108080;28;918;-72
2021/07/21 07:20:40;;;;;;;;;;;;;;;;;;2108186;28;912;-72
2021/07/21 07:21:40;;;;;;;;;;;;;;;;;;2108173;28;845;-72
2021/07/21 07:22:43;;;;;;;;;;;;;;;;;;2108059;28;942;-72
2021/07/21 07:23:45;;;;;;;;;;;;;;;;;;2108036;28;890;-71
2021/07/21 07:24:47;;;;;;;;;;;;;;;;;;2108149;28;806;-72
2021/07/21 07:25:47;;;;;;;;;;;;;;;;;;2108229;28;874;-72
2021/07/21 07:26:50;;;;;;;;;;;;;;;;;;2108265;28;935;-72
2021/07/21 07:27:51;;;;;;;;;;;;;;;;;;2115715;28;1916;-73
2021/07/21 07:28:55;;;;;;;;;;;;;;;;;;2115863;28;826;-72
2021/07/21 07:29:56;;;;;;;;;;;;;;;;;;2108177;28;817;-72
2021/07/21 07:30:58;;;;;;;;;;;;;;;;;;2108213;28;874;-71
2021/07/21 07:31:59;;;;;;;;;;;;;;;;;;2107311;28;965;-71
2021/07/21 07:33:00;;;;;;;;;;;;;;;;;;2107456;28;817;-71
2021/07/21 07:34:01;;;;;;;;;;;;;;;;;;2108233;28;992;-71
2021/07/21 07:35:03;;;;;;;;;;;;;;;;;;2108157;28;968;-72
2021/07/21 07:36:04;;;;;;;;;;;;;;;;;;2107976;28;905;-71
2021/07/21 07:37:06;;;;;;;;;;;;;;;;;;2108010;28;916;-72
2021/07/21 07:38:11;;;;;;;;;;;;;;;;;;2108022;28;889;-72
2021/07/21 07:39:13;;;;;;;;;;;;;;;;;;2108089;28;856;-71
2021/07/21 07:40:14;;;;;;;;;;;;;;;;;;2107919;28;815;-71
2021/07/21 07:41:16;;;;;;;;;;;;;;;;;;2108004;28;873;-72
2021/07/21 07:42:18;;;;;;;;;;;;;;;;;;2108083;28;940;-71
2021/07/21 07:43:20;;;;;;;;;;;;;;;;;;2107787;28;1292;-71
2021/07/21 07:44:21;;;;;;;;;;;;;;;;;;2108116;28;849;-72
2021/07/21 07:45:23;;;;;;;;;;;;;;;;;;2107956;28;846;-71
2021/07/21 07:46:26;;;;;;;;;;;;;;;;;;2107959;28;944;-71
2021/07/21 07:47:28;;;;;;;;;;;;;;;;;;2108108;28;822;-71